createdAt,value
2022-11-07T00:00:14.359Z,9.85
2022-11-07T00:01:13.328Z,9.97
2022-11-07T00:02:13.431Z,9.95
2022-11-07T00:03:13.779Z,9.97
2022-11-07T00:04:13.308Z,9.90
2022-11-07T00:05:13.355Z,9.90
2022-11-07T00:06:13.290Z,9.85
2022-11-07T00:07:13.291Z,9.86
2022-11-07T00:08:13.268Z,9.90
2022-11-07T00:09:13.256Z,9.82
2022-11-07T00:10:13.363Z,9.83
2022-11-07T00:11:13.249Z,9.88
2022-11-07T00:12:13.235Z,9.93
2022-11-07T00:13:13.462Z,9.90
2022-11-07T00:14:13.216Z,9.97
2022-11-07T00:15:13.209Z,9.94
2022-11-07T00:16:13.227Z,9.91
2022-11-07T00:17:13.189Z,9.91
2022-11-07T00:18:13.191Z,9.98
2022-11-07T00:19:13.168Z,10.00
2022-11-07T00:20:13.163Z,9.91
2022-11-07T00:21:13.171Z,9.97
2022-11-07T00:22:14.143Z,10.04
2022-11-07T00:23:13.492Z,10.01
2022-11-07T00:24:13.178Z,10.00
2022-11-07T00:25:13.120Z,10.10
2022-11-07T00:26:13.154Z,10.08
2022-11-07T00:27:13.128Z,10.08
2022-11-07T00:28:13.102Z,10.08
2022-11-07T00:29:13.085Z,10.04
2022-11-07T00:30:13.096Z,10.10
2022-11-07T00:31:13.100Z,10.09
2022-11-07T00:32:13.064Z,10.09
2022-11-07T00:33:13.295Z,10.12
2022-11-07T00:34:13.041Z,10.06
2022-11-07T00:35:13.040Z,10.16
2022-11-07T00:36:13.057Z,10.12
2022-11-07T00:37:13.016Z,10.13
2022-11-07T00:38:13.027Z,10.10
2022-11-07T00:39:12.989Z,10.26
2022-11-07T00:40:14.012Z,10.22
2022-11-07T00:41:13.015Z,10.15
2022-11-07T00:42:12.989Z,10.15
2022-11-07T00:43:13.271Z,10.20
2022-11-07T00:44:12.960Z,10.18
2022-11-07T00:45:12.965Z,10.20
2022-11-07T00:46:12.999Z,10.18
2022-11-07T00:47:12.936Z,10.20
2022-11-07T00:48:12.934Z,10.20
2022-11-07T00:49:12.923Z,10.26
2022-11-07T00:50:12.915Z,10.28
2022-11-07T00:51:12.932Z,10.28
2022-11-07T00:52:12.899Z,10.27
2022-11-07T00:53:13.264Z,10.20
2022-11-07T00:54:12.948Z,10.18
2022-11-07T00:55:12.871Z,10.22
2022-11-07T00:56:12.892Z,10.20
2022-11-07T00:57:12.857Z,10.33
2022-11-07T00:58:14.427Z,10.20
2022-11-07T00:59:13.842Z,10.26
2022-11-07T01:00:12.834Z,10.22
2022-11-07T01:01:12.960Z,10.18
2022-11-07T01:02:12.901Z,10.23
2022-11-07T01:03:13.158Z,10.26
2022-11-07T01:04:12.802Z,10.19
2022-11-07T01:05:12.794Z,10.23
2022-11-07T01:06:12.813Z,10.22
2022-11-07T01:07:13.782Z,10.28
2022-11-07T01:08:12.767Z,10.23
2022-11-07T01:09:12.754Z,10.19
2022-11-07T01:10:12.994Z,10.26
2022-11-07T01:11:12.780Z,10.27
2022-11-07T01:12:12.744Z,10.20
2022-11-07T01:13:13.097Z,10.19
2022-11-07T01:14:12.721Z,10.30
2022-11-07T01:15:12.707Z,10.28
2022-11-07T01:16:12.773Z,10.19
2022-11-07T01:17:12.693Z,10.26
2022-11-07T01:18:12.690Z,10.26
2022-11-07T01:19:12.671Z,10.30
2022-11-07T01:20:12.667Z,10.31
2022-11-07T01:21:16.483Z,10.35
2022-11-07T01:22:13.643Z,10.28
2022-11-07T01:23:13.004Z,10.27
2022-11-07T01:24:12.642Z,10.34
2022-11-07T01:25:12.640Z,10.38
2022-11-07T01:26:12.702Z,10.33
2022-11-07T01:27:12.611Z,10.33
2022-11-07T01:28:12.620Z,10.30
2022-11-07T01:29:12.606Z,10.34
2022-11-07T01:30:12.588Z,10.27
2022-11-07T01:31:12.613Z,10.26
2022-11-07T01:32:12.574Z,10.33
2022-11-07T01:33:12.862Z,10.30
2022-11-07T01:34:12.560Z,10.31
2022-11-07T01:35:12.545Z,10.30
2022-11-07T01:36:12.573Z,10.37
2022-11-07T01:37:12.526Z,10.38
2022-11-07T01:38:12.520Z,10.40
2022-11-07T01:39:12.654Z,10.40
2022-11-07T01:40:12.507Z,10.34
2022-11-07T01:41:12.525Z,10.40
2022-11-07T01:42:12.497Z,10.35
2022-11-07T01:43:12.768Z,10.40
2022-11-07T01:44:12.491Z,10.34
2022-11-07T01:45:12.461Z,10.38
2022-11-07T01:46:12.545Z,10.34
2022-11-07T01:47:12.452Z,10.33
2022-11-07T01:48:12.442Z,10.43
2022-11-07T01:49:12.432Z,10.38
2022-11-07T01:50:12.461Z,10.33
2022-11-07T01:51:12.675Z,10.38
2022-11-07T01:52:12.410Z,10.35
2022-11-07T01:53:12.587Z,10.45
2022-11-07T01:54:12.392Z,10.34
2022-11-07T01:55:12.382Z,10.41
2022-11-07T01:56:12.409Z,10.41
2022-11-07T01:57:12.376Z,10.41
2022-11-07T01:58:12.358Z,10.37
2022-11-07T01:59:12.360Z,10.38
2022-11-07T02:00:12.346Z,10.45
2022-11-07T02:01:12.369Z,10.45
2022-11-07T02:02:12.450Z,10.38
2022-11-07T02:03:12.670Z,10.35
2022-11-07T02:04:12.317Z,10.35
2022-11-07T02:05:12.304Z,10.35
2022-11-07T02:06:12.300Z,10.37
2022-11-07T02:07:12.328Z,10.38
2022-11-07T02:08:12.280Z,10.26
2022-11-07T02:09:12.291Z,10.26
2022-11-07T02:10:12.270Z,10.38
2022-11-07T02:11:12.270Z,10.34
2022-11-07T02:12:12.275Z,10.30
2022-11-07T02:13:12.575Z,10.27
2022-11-07T02:14:12.237Z,10.40
2022-11-07T02:15:12.228Z,10.31
2022-11-07T02:16:12.213Z,10.35
2022-11-07T02:17:12.234Z,10.34
2022-11-07T02:18:12.259Z,10.33
2022-11-07T02:19:12.180Z,10.35
2022-11-07T02:20:12.184Z,10.37
2022-11-07T02:21:12.178Z,10.35
2022-11-07T02:22:12.197Z,10.34
2022-11-07T02:23:12.415Z,10.38
2022-11-07T02:24:12.151Z,10.31
2022-11-07T02:25:12.138Z,10.34
2022-11-07T02:26:12.137Z,10.37
2022-11-07T02:27:12.150Z,10.38
2022-11-07T02:28:12.113Z,10.37
2022-11-07T02:29:12.103Z,10.35
2022-11-07T02:30:12.221Z,10.33
2022-11-07T02:31:12.084Z,10.46
2022-11-07T02:32:12.115Z,10.43
2022-11-07T02:33:12.349Z,10.37
2022-11-07T02:34:12.063Z,10.40
2022-11-07T02:35:12.058Z,10.35
2022-11-07T02:36:12.083Z,10.38
2022-11-07T02:37:12.042Z,10.37
2022-11-07T02:38:12.024Z,10.46
2022-11-07T02:39:12.030Z,10.37
2022-11-07T02:40:12.015Z,10.33
2022-11-07T02:41:12.007Z,10.34
2022-11-07T02:42:12.025Z,10.37
2022-11-07T02:43:12.162Z,10.34
2022-11-07T02:44:11.989Z,10.40
2022-11-07T02:45:11.978Z,10.33
2022-11-07T02:46:11.978Z,10.37
2022-11-07T02:47:11.984Z,10.45
2022-11-07T02:48:11.954Z,10.31
2022-11-07T02:49:11.941Z,10.49
2022-11-07T02:50:12.173Z,10.41
2022-11-07T02:51:11.939Z,10.41
2022-11-07T02:52:11.954Z,10.45
2022-11-07T02:53:12.294Z,10.37
2022-11-07T02:54:11.906Z,10.43
2022-11-07T02:55:11.897Z,10.46
2022-11-07T02:56:11.896Z,10.41
2022-11-07T02:57:12.051Z,10.52
2022-11-07T02:58:11.888Z,10.34
2022-11-07T02:59:11.876Z,10.34
2022-11-07T03:00:11.850Z,10.33
2022-11-07T03:01:12.022Z,10.34
2022-11-07T03:02:11.964Z,10.45
2022-11-07T03:03:12.024Z,10.40
2022-11-07T03:04:11.827Z,10.33
2022-11-07T03:05:11.818Z,10.45
2022-11-07T03:06:11.814Z,10.37
2022-11-07T03:07:11.829Z,10.40
2022-11-07T03:08:11.806Z,10.45
2022-11-07T03:09:11.788Z,10.43
2022-11-07T03:10:11.773Z,10.45
2022-11-07T03:11:11.764Z,10.48
2022-11-07T03:12:11.796Z,10.45
2022-11-07T03:13:12.081Z,10.41
2022-11-07T03:14:11.742Z,10.38
2022-11-07T03:15:11.852Z,10.34
2022-11-07T03:16:11.737Z,10.41
2022-11-07T03:17:11.747Z,10.45
2022-11-07T03:18:11.726Z,10.38
2022-11-07T03:19:11.707Z,10.41
2022-11-07T03:20:11.690Z,10.45
2022-11-07T03:21:11.696Z,10.40
2022-11-07T03:22:11.716Z,10.40
2022-11-07T03:23:11.814Z,10.46
2022-11-07T03:24:11.662Z,10.41
2022-11-07T03:25:11.669Z,10.35
2022-11-07T03:26:11.657Z,10.40
2022-11-07T03:27:11.667Z,10.40
2022-11-07T03:28:11.667Z,10.38
2022-11-07T03:29:11.620Z,10.37
2022-11-07T03:30:11.627Z,10.38
2022-11-07T03:31:11.603Z,10.43
2022-11-07T03:32:11.623Z,10.35
2022-11-07T03:33:11.823Z,10.43
2022-11-07T03:34:11.578Z,10.38
2022-11-07T03:35:11.569Z,10.48
2022-11-07T03:36:11.560Z,10.43
2022-11-07T03:37:11.585Z,10.48
2022-11-07T03:38:11.556Z,10.53
2022-11-07T03:39:11.544Z,10.43
2022-11-07T03:40:11.537Z,10.49
2022-11-07T03:41:11.522Z,10.49
2022-11-07T03:42:11.530Z,10.49
2022-11-07T03:43:11.716Z,10.53
2022-11-07T03:44:11.501Z,10.46
2022-11-07T03:45:11.487Z,10.49
2022-11-07T03:46:11.479Z,10.57
2022-11-07T03:47:11.494Z,10.60
2022-11-07T03:48:11.465Z,10.56
2022-11-07T03:49:11.456Z,10.59
2022-11-07T03:50:11.442Z,10.59
2022-11-07T03:51:11.445Z,10.67
2022-11-07T03:52:11.473Z,10.56
2022-11-07T03:53:11.585Z,10.65
2022-11-07T03:54:11.416Z,10.62
2022-11-07T03:55:11.438Z,10.65
2022-11-07T03:56:11.400Z,10.62
2022-11-07T03:57:11.420Z,10.65
2022-11-07T03:58:11.385Z,10.67
2022-11-07T03:59:11.370Z,10.70
2022-11-07T04:00:11.369Z,10.64
2022-11-07T04:01:11.362Z,10.72
2022-11-07T04:02:11.454Z,10.59
2022-11-07T04:03:11.436Z,10.70
2022-11-07T04:04:11.341Z,10.65
2022-11-07T04:05:11.321Z,10.62
2022-11-07T04:06:11.326Z,10.64
2022-11-07T04:07:11.349Z,10.70
2022-11-07T04:08:11.308Z,10.67
2022-11-07T04:09:11.290Z,10.70
2022-11-07T04:10:11.287Z,10.62
2022-11-07T04:11:11.282Z,10.72
2022-11-07T04:12:11.263Z,10.68
2022-11-07T04:13:11.393Z,10.74
2022-11-07T04:14:11.259Z,10.75
2022-11-07T04:15:11.249Z,10.74
2022-11-07T04:16:16.418Z,10.70
2022-11-07T04:17:13.225Z,10.75
2022-11-07T04:18:11.246Z,10.64
2022-11-07T04:19:11.209Z,10.72
2022-11-07T04:20:11.197Z,10.77
2022-11-07T04:21:11.196Z,10.71
2022-11-07T04:22:11.177Z,10.77
2022-11-07T04:23:12.547Z,10.74
2022-11-07T04:24:11.162Z,10.74
2022-11-07T04:25:11.170Z,10.74
2022-11-07T04:26:11.145Z,10.70
2022-11-07T04:27:11.159Z,10.75
2022-11-07T04:28:11.158Z,10.75
2022-11-07T04:29:11.121Z,10.71
2022-11-07T04:30:11.114Z,10.79
2022-11-07T04:31:11.118Z,10.75
2022-11-07T04:32:11.096Z,10.74
2022-11-07T04:33:11.211Z,10.77
2022-11-07T04:34:11.083Z,10.71
2022-11-07T04:35:11.093Z,10.71
2022-11-07T04:36:11.065Z,10.78
2022-11-07T04:37:11.056Z,10.74
2022-11-07T04:38:11.086Z,10.74
2022-11-07T04:40:36.544Z,10.78
2022-11-07T04:41:36.555Z,10.67
2022-11-07T04:42:36.593Z,10.78
2022-11-07T04:43:36.541Z,10.68
2022-11-07T04:44:36.537Z,10.75
2022-11-07T04:45:36.519Z,10.78
2022-11-07T04:46:36.516Z,10.75
2022-11-07T04:47:40.171Z,10.71
2022-11-07T04:48:36.527Z,10.74
2022-11-07T04:49:37.644Z,10.77
2022-11-07T04:50:37.635Z,10.74
2022-11-07T04:51:37.623Z,10.72
2022-11-07T04:52:37.612Z,10.77
2022-11-07T04:53:37.634Z,10.78
2022-11-07T04:54:37.624Z,10.79
2022-11-07T04:55:37.590Z,10.72
2022-11-07T04:56:37.580Z,10.75
2022-11-07T04:57:37.672Z,10.72
2022-11-07T04:58:37.567Z,10.72
2022-11-07T04:59:37.553Z,10.71
2022-11-07T05:00:37.547Z,10.74
2022-11-07T05:01:37.575Z,10.77
2022-11-07T05:02:37.605Z,10.86
2022-11-07T05:03:41.525Z,10.74
2022-11-07T05:04:38.508Z,10.77
2022-11-07T05:05:37.514Z,10.67
2022-11-07T05:06:37.499Z,10.68
2022-11-07T05:07:37.489Z,10.79
2022-11-07T05:08:37.516Z,10.82
2022-11-07T05:09:37.475Z,10.77
2022-11-07T05:10:37.466Z,10.79
2022-11-07T05:11:37.457Z,10.85
2022-11-07T05:12:37.449Z,10.72
2022-11-07T05:13:37.468Z,10.75
2022-11-07T05:14:37.424Z,10.83
2022-11-07T05:15:37.417Z,10.87
2022-11-07T05:16:37.409Z,10.83
2022-11-07T05:17:37.399Z,10.79
2022-11-07T05:18:37.426Z,10.85
2022-11-07T05:19:37.388Z,10.85
2022-11-07T05:20:37.379Z,10.89
2022-11-07T05:21:37.367Z,10.87
2022-11-07T05:22:37.359Z,10.87
2022-11-07T05:23:37.379Z,10.92
2022-11-07T05:24:37.345Z,10.92
2022-11-07T05:25:37.330Z,10.90
2022-11-07T05:26:37.330Z,10.92
2022-11-07T05:27:37.316Z,10.93
2022-11-07T05:28:39.610Z,10.93
2022-11-07T05:29:38.316Z,10.86
2022-11-07T05:30:37.377Z,10.87
2022-11-07T05:31:37.279Z,10.87
2022-11-07T05:32:37.270Z,10.89
2022-11-07T05:33:37.288Z,10.92
2022-11-07T05:34:38.263Z,11.05
2022-11-07T05:35:37.243Z,10.96
2022-11-07T05:36:37.233Z,10.97
2022-11-07T05:37:37.231Z,10.89
2022-11-07T05:38:37.247Z,10.92
2022-11-07T05:39:37.209Z,10.87
2022-11-07T05:40:37.199Z,10.92
2022-11-07T05:41:37.672Z,10.89
2022-11-07T05:42:37.191Z,10.92
2022-11-07T05:43:37.205Z,10.92
2022-11-07T05:44:37.160Z,10.92
2022-11-07T05:45:38.172Z,10.96
2022-11-07T05:46:37.160Z,10.95
2022-11-07T05:47:37.140Z,10.95
2022-11-07T05:48:37.166Z,10.92
2022-11-07T05:49:37.128Z,10.90
2022-11-07T05:50:37.113Z,10.93
2022-11-07T05:51:37.105Z,10.87
2022-11-07T05:52:37.174Z,10.89
2022-11-07T05:53:37.334Z,10.97
2022-11-07T05:54:37.083Z,10.93
2022-11-07T05:55:37.069Z,10.86
2022-11-07T05:56:37.063Z,10.90
2022-11-07T05:57:37.069Z,10.89
2022-11-07T05:58:37.299Z,10.87
2022-11-07T05:59:37.044Z,10.89
2022-11-07T06:00:37.042Z,10.90
2022-11-07T06:01:37.211Z,10.93
2022-11-07T06:02:37.091Z,10.93
2022-11-07T06:03:37.038Z,10.96
2022-11-07T06:04:37.002Z,11.04
2022-11-07T06:05:36.993Z,11.04
2022-11-07T06:06:36.977Z,11.08
2022-11-07T06:07:37.977Z,10.97
2022-11-07T06:08:37.003Z,10.97
2022-11-07T06:09:36.971Z,11.01
2022-11-07T06:10:36.963Z,10.97
2022-11-07T06:11:36.968Z,11.05
2022-11-07T06:12:36.928Z,11.07
2022-11-07T06:13:37.965Z,11.11
2022-11-07T06:14:36.922Z,11.14
2022-11-07T06:15:36.913Z,11.08
2022-11-07T06:16:36.897Z,11.05
2022-11-07T06:17:36.895Z,11.07
2022-11-07T06:18:41.389Z,11.05
2022-11-07T06:19:37.871Z,11.11
2022-11-07T06:20:36.865Z,11.12
2022-11-07T06:21:36.857Z,11.22
2022-11-07T06:22:36.855Z,11.12
2022-11-07T06:23:36.881Z,11.05
2022-11-07T06:24:36.844Z,11.15
2022-11-07T06:25:36.832Z,11.23
2022-11-07T06:26:36.815Z,11.11
2022-11-07T06:27:36.865Z,11.11
2022-11-07T06:28:36.834Z,11.14
2022-11-07T06:29:36.799Z,11.01
2022-11-07T06:30:36.793Z,11.14
2022-11-07T06:31:36.772Z,11.15
2022-11-07T06:32:36.768Z,11.08
2022-11-07T06:33:36.792Z,11.20
2022-11-07T06:34:36.756Z,11.20
2022-11-07T06:35:36.742Z,11.25
2022-11-07T06:36:36.745Z,11.15
2022-11-07T06:37:36.724Z,11.17
2022-11-07T06:38:36.744Z,11.22
2022-11-07T06:39:36.702Z,11.15
2022-11-07T06:40:36.697Z,11.25
2022-11-07T06:41:36.684Z,11.26
2022-11-07T06:42:36.683Z,11.23
2022-11-07T06:43:36.701Z,11.26
2022-11-07T06:44:36.672Z,11.19
2022-11-07T06:45:36.666Z,11.26
2022-11-07T06:46:36.638Z,11.26
2022-11-07T06:47:36.633Z,11.25
2022-11-07T06:48:36.652Z,11.19
2022-11-07T06:49:36.610Z,11.23
2022-11-07T06:50:36.603Z,11.28
2022-11-07T06:51:36.599Z,11.26
2022-11-07T06:52:36.614Z,11.25
2022-11-07T06:53:36.615Z,11.22
2022-11-07T06:54:36.577Z,11.32
2022-11-07T06:55:36.564Z,11.32
2022-11-07T06:56:36.571Z,11.20
2022-11-07T06:57:36.556Z,11.29
2022-11-07T06:58:36.563Z,11.33
2022-11-07T06:59:36.539Z,11.40
2022-11-07T07:00:36.653Z,11.40
2022-11-07T07:01:36.634Z,11.32
2022-11-07T07:02:57.549Z,11.40
2022-11-07T07:03:38.532Z,11.32
2022-11-07T07:04:36.482Z,11.30
2022-11-07T07:05:37.559Z,11.40
2022-11-07T07:06:36.483Z,11.37
2022-11-07T07:07:37.461Z,11.44
2022-11-07T07:08:37.501Z,11.46
2022-11-07T07:09:36.451Z,11.53
2022-11-07T07:10:36.453Z,11.47
2022-11-07T07:11:36.452Z,11.54
2022-11-07T07:12:36.423Z,11.46
2022-11-07T07:13:36.454Z,11.47
2022-11-07T07:14:36.405Z,11.54
2022-11-07T07:15:50.003Z,11.51
2022-11-07T07:16:38.384Z,11.53
2022-11-07T07:17:36.386Z,11.61
2022-11-07T07:18:36.372Z,11.58
2022-11-07T07:19:36.395Z,11.58
2022-11-07T07:20:36.358Z,11.58
2022-11-07T07:21:36.416Z,11.65
2022-11-07T07:22:36.336Z,11.56
2022-11-07T07:23:36.327Z,11.59
2022-11-07T07:24:36.351Z,11.63
2022-11-07T07:25:36.315Z,11.61
2022-11-07T07:26:36.305Z,11.61
2022-11-07T07:27:36.295Z,11.66
2022-11-07T07:28:36.283Z,11.71
2022-11-07T07:29:36.305Z,11.66
2022-11-07T07:30:36.287Z,11.65
2022-11-07T07:31:36.271Z,11.79
2022-11-07T07:32:36.250Z,11.83
2022-11-07T07:33:36.243Z,11.69
2022-11-07T07:34:36.269Z,11.79
2022-11-07T07:35:36.233Z,11.91
2022-11-07T07:36:36.218Z,11.90
2022-11-07T07:37:36.285Z,11.86
2022-11-07T07:38:36.228Z,11.88
2022-11-07T07:39:36.198Z,11.95
2022-11-07T07:40:36.182Z,11.91
2022-11-07T07:41:40.038Z,11.95
2022-11-07T07:42:37.169Z,11.86
2022-11-07T07:43:36.188Z,11.87
2022-11-07T07:44:36.149Z,11.95
2022-11-07T07:45:36.136Z,11.99
2022-11-07T07:46:36.126Z,12.09
2022-11-07T07:47:36.129Z,12.07
2022-11-07T07:48:36.149Z,12.07
2022-11-07T07:49:36.115Z,12.00
2022-11-07T07:50:36.102Z,12.15
2022-11-07T07:51:36.103Z,12.14
2022-11-07T07:52:36.073Z,12.18
2022-11-07T07:53:36.178Z,12.39
2022-11-07T07:54:36.067Z,12.58
2022-11-07T07:55:36.055Z,13.03
2022-11-07T07:56:36.045Z,13.86
2022-11-07T07:57:36.043Z,14.07
2022-11-07T07:58:36.073Z,14.25
2022-11-07T07:59:36.023Z,14.62
2022-11-07T08:00:36.072Z,14.99
2022-11-07T08:01:36.155Z,14.78
2022-11-07T08:02:36.030Z,14.29
2022-11-07T08:03:59.509Z,14.01
2022-11-07T08:04:37.990Z,13.75
2022-11-07T08:05:35.992Z,13.93
2022-11-07T08:06:35.963Z,14.20
2022-11-07T08:07:35.955Z,14.14
2022-11-07T08:08:38.320Z,13.89
2022-11-07T08:09:37.102Z,13.96
2022-11-07T08:10:42.103Z,14.18
2022-11-07T08:11:37.925Z,14.38
2022-11-07T08:12:35.920Z,14.63
2022-11-07T08:13:35.938Z,14.48
2022-11-07T08:14:35.889Z,14.15
2022-11-07T08:15:36.886Z,14.26
2022-11-07T08:16:35.885Z,14.19
2022-11-07T08:17:35.871Z,14.19
2022-11-07T08:18:35.908Z,14.19
2022-11-07T08:19:35.856Z,14.20
2022-11-07T08:20:35.851Z,14.25
2022-11-07T08:21:35.844Z,14.10
2022-11-07T08:22:35.828Z,13.88
2022-11-07T08:23:35.851Z,13.83
2022-11-07T08:24:35.817Z,13.77
2022-11-07T08:25:35.871Z,13.75
2022-11-07T08:26:35.802Z,13.68
2022-11-07T08:27:35.778Z,13.65
2022-11-07T08:28:36.809Z,13.65
2022-11-07T08:29:35.789Z,13.70
2022-11-07T08:30:35.778Z,13.78
2022-11-07T08:31:35.767Z,13.70
2022-11-07T08:32:35.751Z,13.82
2022-11-07T08:33:35.860Z,13.83
2022-11-07T08:34:35.745Z,13.92
2022-11-07T08:35:43.005Z,13.93
2022-11-07T08:36:35.724Z,13.96
2022-11-07T08:37:35.719Z,13.92
2022-11-07T08:38:35.741Z,13.97
2022-11-07T08:39:35.696Z,13.90
2022-11-07T08:40:35.684Z,14.01
2022-11-07T08:41:35.671Z,14.05
2022-11-07T08:42:35.676Z,14.14
2022-11-07T08:43:35.689Z,14.13
2022-11-07T08:44:35.653Z,14.28
2022-11-07T08:45:35.642Z,14.23
2022-11-07T08:46:35.635Z,14.30
2022-11-07T08:47:35.642Z,14.41
2022-11-07T08:48:35.646Z,14.33
2022-11-07T08:49:35.607Z,14.26
2022-11-07T08:50:35.597Z,14.28
2022-11-07T08:51:35.605Z,14.29
2022-11-07T08:52:35.580Z,14.28
2022-11-07T08:53:35.597Z,14.18
2022-11-07T08:54:35.558Z,14.28
2022-11-07T08:55:35.549Z,14.15
2022-11-07T08:56:35.543Z,14.13
2022-11-07T08:57:35.539Z,14.19
2022-11-07T08:58:35.562Z,14.05
2022-11-07T08:59:35.519Z,14.10
2022-11-07T09:00:35.595Z,14.10
2022-11-07T09:01:44.225Z,14.10
2022-11-07T09:03:47.813Z,14.22
2022-11-07T09:04:37.536Z,14.20
2022-11-07T09:05:35.463Z,14.14
2022-11-07T09:06:35.480Z,14.23
2022-11-07T09:07:35.456Z,14.23
2022-11-07T09:08:35.479Z,14.28
2022-11-07T09:09:35.431Z,14.33
2022-11-07T09:10:35.433Z,14.43
2022-11-07T09:11:35.421Z,14.47
2022-11-07T09:12:35.404Z,14.50
2022-11-07T09:13:35.426Z,14.22
2022-11-07T09:14:35.405Z,14.23
2022-11-07T09:15:35.382Z,14.19
2022-11-07T09:16:35.372Z,14.26
2022-11-07T09:17:35.365Z,14.38
2022-11-07T09:18:35.387Z,14.43
2022-11-07T09:19:35.359Z,14.48
2022-11-07T09:20:35.351Z,14.51
2022-11-07T09:21:35.343Z,14.38
2022-11-07T09:22:35.327Z,14.29
2022-11-07T09:23:35.344Z,14.29
2022-11-07T09:24:35.315Z,14.44
2022-11-07T09:25:35.302Z,14.53
2022-11-07T09:26:35.288Z,14.59
2022-11-07T09:27:35.285Z,14.73
2022-11-07T09:28:35.312Z,14.73
2022-11-07T09:29:35.280Z,14.77
2022-11-07T09:30:35.269Z,14.88
2022-11-07T09:31:35.257Z,14.78
2022-11-07T09:32:50.053Z,14.95
2022-11-07T09:33:37.471Z,14.93
2022-11-07T09:34:35.229Z,14.99
2022-11-07T09:35:35.229Z,15.03
2022-11-07T09:36:35.209Z,15.00
2022-11-07T09:37:35.203Z,15.04
2022-11-07T09:38:35.232Z,14.99
2022-11-07T09:39:35.189Z,14.89
2022-11-07T09:40:35.180Z,14.97
2022-11-07T09:41:35.174Z,14.91
2022-11-07T09:42:35.161Z,14.93
2022-11-07T09:43:35.182Z,14.89
2022-11-07T09:44:37.517Z,14.91
2022-11-07T09:45:36.130Z,14.85
2022-11-07T09:46:35.130Z,14.81
2022-11-07T09:47:35.121Z,14.63
2022-11-07T09:48:35.140Z,14.68
2022-11-07T09:49:35.098Z,14.61
2022-11-07T09:50:35.091Z,14.44
2022-11-07T09:51:35.084Z,14.43
2022-11-07T09:52:35.077Z,14.38
2022-11-07T09:53:35.092Z,14.29
2022-11-07T09:54:35.072Z,14.40
2022-11-07T09:55:35.048Z,14.28
2022-11-07T09:56:35.034Z,14.32
2022-11-07T09:57:35.029Z,14.18
2022-11-07T09:58:35.049Z,14.19
2022-11-07T09:59:35.018Z,14.19
2022-11-07T10:00:35.115Z,14.13
2022-11-07T10:01:35.183Z,14.18
2022-11-07T10:02:34.993Z,14.07
2022-11-07T10:03:35.024Z,14.08
2022-11-07T10:04:34.972Z,13.97
2022-11-07T10:05:34.965Z,14.10
2022-11-07T10:06:34.955Z,14.10
2022-11-07T10:07:34.961Z,14.08
2022-11-07T10:08:34.974Z,14.01
2022-11-07T10:09:34.934Z,13.97
2022-11-07T10:10:34.928Z,14.04
2022-11-07T10:11:34.920Z,13.92
2022-11-07T10:12:34.907Z,14.03
2022-11-07T10:13:34.911Z,14.00
2022-11-07T10:14:34.922Z,13.95
2022-11-07T10:15:34.886Z,13.90
2022-11-07T10:16:35.873Z,13.95
2022-11-07T10:17:34.868Z,13.93
2022-11-07T10:18:34.980Z,13.95
2022-11-07T10:19:34.878Z,13.93
2022-11-07T10:20:34.843Z,13.82
2022-11-07T10:21:38.199Z,13.92
2022-11-07T10:22:35.826Z,13.85
2022-11-07T10:23:34.818Z,13.83
2022-11-07T10:24:34.826Z,13.82
2022-11-07T10:25:35.790Z,13.82
2022-11-07T10:26:35.786Z,13.90
2022-11-07T10:27:34.839Z,13.95
2022-11-07T10:28:34.771Z,13.93
2022-11-07T10:29:34.799Z,14.00
2022-11-07T10:30:34.754Z,14.04
2022-11-07T10:31:34.743Z,14.14
2022-11-07T10:32:34.741Z,14.18
2022-11-07T10:33:34.735Z,14.20
2022-11-07T10:34:34.750Z,14.29
2022-11-07T10:35:34.721Z,14.25
2022-11-07T10:36:34.720Z,14.26
2022-11-07T10:37:34.702Z,14.25
2022-11-07T10:38:34.690Z,14.41
2022-11-07T10:39:34.723Z,14.36
2022-11-07T10:40:34.671Z,14.43
2022-11-07T10:41:34.661Z,14.44
2022-11-07T10:42:34.709Z,14.45
2022-11-07T10:43:34.648Z,14.45
2022-11-07T10:44:34.680Z,14.38
2022-11-07T10:45:41.354Z,14.53
2022-11-07T10:46:34.624Z,14.50
2022-11-07T10:47:34.610Z,14.50
2022-11-07T10:48:34.602Z,14.41
2022-11-07T10:49:34.710Z,14.40
2022-11-07T10:50:34.586Z,14.56
2022-11-07T10:51:34.588Z,14.61
2022-11-07T10:52:34.594Z,14.58
2022-11-07T10:53:34.578Z,14.58
2022-11-07T10:54:34.580Z,14.69
2022-11-07T10:55:34.541Z,14.73
2022-11-07T10:56:34.537Z,14.77
2022-11-07T10:57:34.529Z,14.70
2022-11-07T10:58:34.522Z,14.68
2022-11-07T10:59:36.391Z,14.68
2022-11-07T11:00:35.510Z,14.70
2022-11-07T11:01:34.606Z,14.68
2022-11-07T11:02:34.491Z,14.70
2022-11-07T11:03:44.399Z,14.66
2022-11-07T11:04:36.501Z,14.65
2022-11-07T11:05:34.467Z,14.69
2022-11-07T11:06:34.451Z,14.69
2022-11-07T11:07:34.452Z,14.61
2022-11-07T11:08:34.445Z,14.59
2022-11-07T11:09:34.463Z,14.58
2022-11-07T11:10:34.422Z,14.62
2022-11-07T11:11:34.427Z,14.65
2022-11-07T11:12:34.971Z,14.61
2022-11-07T11:13:35.408Z,14.63
2022-11-07T11:14:34.428Z,14.73
2022-11-07T11:15:35.930Z,14.78
2022-11-07T11:16:35.374Z,14.74
2022-11-07T11:17:34.382Z,14.85
2022-11-07T11:18:34.355Z,14.93
2022-11-07T11:19:34.380Z,14.97
2022-11-07T11:20:34.347Z,14.95
2022-11-07T11:21:34.336Z,14.89
2022-11-07T11:22:34.329Z,14.99
2022-11-07T11:23:34.325Z,14.95
2022-11-07T11:24:34.320Z,14.93
2022-11-07T11:25:34.325Z,14.89
2022-11-07T11:26:34.295Z,14.93
2022-11-07T11:27:34.291Z,14.93
2022-11-07T11:28:34.329Z,14.88
2022-11-07T11:29:39.158Z,14.87
2022-11-07T11:30:36.282Z,14.88
2022-11-07T11:31:34.248Z,14.81
2022-11-07T11:32:34.241Z,14.89
2022-11-07T11:33:34.225Z,14.81
2022-11-07T11:34:34.253Z,14.81
2022-11-07T11:35:38.875Z,14.78
2022-11-07T11:36:36.203Z,14.78
2022-11-07T11:37:34.199Z,14.78
2022-11-07T11:38:34.191Z,14.82
2022-11-07T11:39:34.184Z,14.82
2022-11-07T11:40:34.329Z,14.77
2022-11-07T11:41:34.167Z,14.84
2022-11-07T11:42:34.159Z,14.82
2022-11-07T11:43:34.169Z,14.79
2022-11-07T11:44:34.134Z,14.85
2022-11-07T11:45:34.166Z,14.81
2022-11-07T11:46:34.122Z,14.70
2022-11-07T11:47:34.621Z,14.77
2022-11-07T11:48:35.100Z,14.73
2022-11-07T11:49:34.088Z,14.73
2022-11-07T11:50:34.112Z,14.79
2022-11-07T11:51:34.075Z,14.78
2022-11-07T11:52:34.077Z,14.79
2022-11-07T11:53:34.073Z,14.82
2022-11-07T11:54:35.053Z,14.85
2022-11-07T11:55:34.091Z,14.87
2022-11-07T11:56:34.036Z,14.87
2022-11-07T11:57:34.025Z,14.89
2022-11-07T11:58:34.010Z,14.95
2022-11-07T11:59:34.019Z,14.91
2022-11-07T12:00:34.223Z,14.91
2022-11-07T12:01:33.993Z,14.99
2022-11-07T12:02:34.106Z,14.88
2022-11-07T12:03:33.979Z,14.91
2022-11-07T12:04:33.967Z,14.99
2022-11-07T12:05:33.960Z,14.87
2022-11-07T12:06:33.979Z,14.89
2022-11-07T12:07:33.945Z,14.88
2022-11-07T12:08:33.942Z,14.87
2022-11-07T12:09:33.928Z,14.89
2022-11-07T12:10:33.920Z,14.93
2022-11-07T12:11:33.952Z,14.91
2022-11-07T12:12:33.896Z,14.95
2022-11-07T12:13:33.889Z,15.02
2022-11-07T12:14:33.887Z,14.97
2022-11-07T12:15:33.877Z,15.03
2022-11-07T12:18:11.746Z,15.09
2022-11-07T12:18:13.326Z,15.15
2022-11-07T12:19:13.293Z,15.22
2022-11-07T12:20:13.346Z,15.30
2022-11-07T12:21:13.314Z,15.52
2022-11-07T12:22:13.276Z,15.40
2022-11-07T12:23:13.495Z,15.48
2022-11-07T12:24:13.270Z,15.35
2022-11-07T12:25:13.251Z,15.40
2022-11-07T12:26:13.260Z,15.28
2022-11-07T12:27:14.228Z,15.25
2022-11-07T12:28:13.222Z,15.22
2022-11-07T12:29:13.219Z,15.43
2022-11-07T12:30:13.228Z,15.55
2022-11-07T12:31:13.224Z,15.69
2022-11-07T12:32:13.189Z,15.87
2022-11-07T12:33:13.406Z,15.77
2022-11-07T12:34:13.170Z,15.72
2022-11-07T12:35:13.163Z,15.61
2022-11-07T12:36:13.184Z,15.39
2022-11-07T12:37:13.146Z,15.39
2022-11-07T12:38:13.178Z,15.18
2022-11-07T12:39:13.127Z,15.25
2022-11-07T12:40:13.122Z,15.54
2022-11-07T12:41:13.159Z,15.73
2022-11-07T12:42:13.101Z,15.80
2022-11-07T12:43:13.107Z,16.00
2022-11-07T12:44:13.080Z,16.00
2022-11-07T12:45:13.083Z,15.73
2022-11-07T12:46:13.099Z,15.60
2022-11-07T12:47:13.055Z,15.46
2022-11-07T12:48:13.607Z,15.54
2022-11-07T12:49:14.036Z,15.54
2022-11-07T12:50:13.036Z,15.65
2022-11-07T12:51:13.050Z,15.79
2022-11-07T12:52:13.034Z,15.92
2022-11-07T12:53:13.042Z,15.97
2022-11-07T12:54:16.535Z,15.90
2022-11-07T12:55:13.993Z,15.88
2022-11-07T12:56:13.009Z,15.82